createdAt,value
2018-04-13T00:02:03.935Z,3.10
2018-04-13T00:04:32.020Z,2.80
2018-04-13T00:07:00.851Z,3.00
2018-04-13T00:09:28.900Z,3.10
2018-04-13T00:11:56.973Z,3.20
2018-04-13T00:14:25.031Z,3.60
2018-04-13T00:16:53.089Z,3.40
2018-04-13T00:19:21.152Z,3.30
2018-04-13T00:21:49.207Z,3.43
2018-04-13T00:24:17.269Z,3.03
2018-04-13T00:26:45.358Z,3.73
2018-04-13T00:29:13.418Z,2.97
2018-04-13T00:31:41.481Z,2.90
2018-04-13T00:34:09.550Z,3.20
2018-04-13T00:36:37.622Z,3.30
2018-04-13T00:39:05.677Z,3.53
2018-04-13T00:41:33.738Z,3.03
2018-04-13T00:44:01.807Z,3.60
2018-04-13T00:46:29.857Z,2.60
2018-04-13T00:48:57.965Z,2.80
2018-04-13T00:51:26.003Z,3.20
2018-04-13T00:53:54.063Z,3.33
2018-04-13T00:56:22.885Z,3.00
2018-04-13T00:58:50.957Z,3.30
2018-04-13T01:01:19.015Z,3.00
2018-04-13T01:03:47.079Z,3.00
2018-04-13T01:06:15.139Z,3.10
2018-04-13T01:08:43.222Z,2.73
2018-04-13T01:11:11.291Z,3.10
2018-04-13T01:13:39.339Z,2.93
2018-04-13T01:16:07.390Z,2.50
2018-04-13T01:18:35.488Z,2.97
2018-04-13T01:21:03.540Z,3.13
2018-04-13T01:23:31.602Z,2.90
2018-04-13T01:25:59.684Z,2.93
2018-04-13T01:28:27.736Z,3.20
2018-04-13T01:30:55.794Z,3.00
2018-04-13T01:33:23.871Z,3.13
2018-04-13T01:35:51.920Z,2.83
2018-04-13T01:38:19.980Z,3.10
2018-04-13T01:40:48.046Z,3.00
2018-04-13T01:43:16.113Z,2.77
2018-04-13T01:45:44.176Z,3.33
2018-04-13T01:48:12.246Z,3.10
2018-04-13T01:50:40.311Z,3.67
2018-04-13T01:53:09.136Z,3.13
2018-04-13T01:55:37.205Z,3.50
2018-04-13T01:58:05.265Z,3.10
2018-04-13T02:00:33.324Z,3.67
2018-04-13T02:03:01.380Z,3.10
2018-04-13T02:05:29.444Z,3.53
2018-04-13T02:07:57.538Z,3.60
2018-04-13T02:10:25.589Z,3.37
2018-04-13T02:12:54.405Z,3.67
2018-04-13T02:15:22.491Z,3.60
2018-04-13T02:17:50.547Z,3.60
2018-04-13T02:20:18.613Z,4.00
2018-04-13T02:22:46.689Z,3.50
2018-04-13T02:25:14.763Z,3.50
2018-04-13T02:27:42.817Z,3.50
2018-04-13T02:30:10.881Z,4.23
2018-04-13T02:32:38.942Z,3.93
2018-04-13T02:35:07.018Z,4.03
2018-04-13T02:37:35.058Z,4.10
2018-04-13T02:40:03.157Z,4.03
2018-04-13T02:42:31.209Z,3.57
2018-04-13T02:44:59.263Z,4.63
2018-04-13T02:47:28.093Z,3.70
2018-04-13T02:49:56.923Z,3.77
2018-04-13T02:52:24.984Z,4.00
2018-04-13T02:54:53.078Z,3.70
2018-04-13T02:57:21.133Z,4.00
2018-04-13T02:59:49.191Z,3.73
2018-04-13T03:02:17.257Z,4.10
2018-04-13T03:04:45.304Z,4.40
2018-04-13T03:07:13.372Z,4.67
2018-04-13T03:09:41.437Z,4.10
2018-04-13T03:12:09.489Z,4.47
2018-04-13T03:14:37.558Z,4.10
2018-04-13T03:17:05.658Z,3.90
2018-04-13T03:19:33.709Z,4.27
2018-04-13T03:22:01.770Z,4.20
2018-04-13T03:24:29.837Z,4.30
2018-04-13T03:26:57.891Z,4.10
2018-04-13T03:29:28.207Z,4.17
2018-04-13T03:31:56.361Z,4.10
2018-04-13T03:34:24.416Z,4.60
2018-04-13T03:36:52.487Z,4.00
2018-04-13T03:39:20.540Z,3.53
2018-04-13T03:41:48.603Z,4.17
2018-04-13T03:44:16.662Z,3.70
2018-04-13T03:46:44.713Z,4.33
2018-04-13T03:49:12.798Z,4.07
2018-04-13T03:51:40.846Z,4.30
2018-04-13T03:54:08.895Z,4.60
2018-04-13T03:56:36.952Z,4.13
2018-04-13T03:59:05.014Z,4.20
2018-04-13T04:01:33.102Z,4.43
2018-04-13T04:04:01.157Z,4.73
2018-04-13T04:06:29.981Z,4.43
2018-04-13T04:08:58.049Z,4.30
2018-04-13T04:11:26.099Z,4.40
2018-04-13T04:13:54.193Z,4.50
2018-04-13T04:16:22.255Z,4.50
2018-04-13T04:18:50.301Z,4.23
2018-04-13T04:21:30.037Z,4.50
2018-04-13T04:24:09.958Z,4.70
2018-04-13T04:26:46.885Z,4.33
2018-04-13T04:29:14.939Z,4.53
2018-04-13T04:31:43.754Z,4.67
2018-04-13T04:34:11.810Z,4.47
2018-04-13T04:36:40.626Z,4.70
2018-04-13T04:39:08.889Z,4.23
2018-04-13T04:41:36.936Z,4.10
2018-04-13T04:44:04.988Z,3.87
2018-04-13T04:46:33.136Z,4.23
2018-04-13T04:49:01.183Z,4.43
2018-04-13T04:51:29.243Z,4.60
2018-04-13T04:53:57.336Z,4.53
2018-04-13T04:56:25.378Z,4.20
2018-04-13T04:58:53.428Z,4.33
2018-04-13T05:01:21.494Z,4.60
2018-04-13T05:03:49.546Z,4.60
2018-04-13T05:06:17.606Z,4.47
2018-04-13T05:08:45.649Z,4.43
2018-04-13T05:11:13.722Z,4.83
2018-04-13T05:13:41.763Z,4.47
2018-04-13T05:16:10.726Z,4.70
2018-04-13T05:18:38.793Z,4.60
2018-04-13T05:21:06.846Z,4.67
2018-04-13T05:23:34.895Z,4.47
2018-04-13T05:26:02.986Z,4.30
2018-04-13T05:28:31.038Z,4.57
2018-04-13T05:30:59.092Z,4.27
2018-04-13T05:33:27.152Z,4.53
2018-04-13T05:35:55.216Z,4.57
2018-04-13T05:38:23.283Z,4.50
2018-04-13T05:40:51.353Z,4.10
2018-04-13T05:43:19.418Z,4.60
2018-04-13T05:45:47.479Z,4.37
2018-04-13T05:48:15.538Z,4.47
2018-04-13T05:50:43.598Z,4.57
2018-04-13T05:53:11.670Z,5.53
2018-04-13T05:55:39.729Z,4.60
2018-04-13T05:58:07.791Z,4.60
2018-04-13T06:00:35.851Z,4.60
2018-04-13T06:03:03.903Z,5.07
2018-04-13T06:05:31.972Z,5.13
2018-04-13T06:08:00.785Z,4.83
2018-04-13T06:10:28.861Z,4.90
2018-04-13T06:12:56.923Z,4.13
2018-04-13T06:15:24.983Z,4.77
2018-04-13T06:17:53.080Z,4.60
2018-04-13T06:20:21.137Z,4.03
2018-04-13T06:22:49.184Z,4.20
2018-04-13T06:25:17.253Z,4.60
2018-04-13T06:27:45.306Z,4.23
2018-04-13T06:30:13.399Z,4.17
2018-04-13T06:32:41.437Z,3.80
2018-04-13T06:35:09.505Z,4.40
2018-04-13T06:37:37.561Z,4.50
2018-04-13T06:40:05.628Z,4.40
2018-04-13T06:42:33.684Z,4.40
2018-04-13T06:45:01.732Z,4.40
2018-04-13T06:47:29.795Z,4.40
2018-04-13T06:49:57.886Z,3.73
2018-04-13T06:52:25.941Z,3.83
2018-04-13T06:54:54.387Z,4.40
2018-04-13T06:57:22.480Z,3.87
2018-04-13T06:59:50.547Z,3.80
2018-04-13T07:02:18.596Z,4.20
2018-04-13T07:04:46.680Z,3.90
2018-04-13T07:07:14.736Z,4.00
2018-04-13T07:09:42.796Z,4.30
2018-04-13T07:12:10.880Z,4.20
2018-04-13T07:14:38.938Z,4.00
2018-04-13T07:17:06.996Z,4.37
2018-04-13T07:19:35.063Z,4.53
2018-04-13T07:22:03.132Z,4.13
2018-04-13T07:24:31.192Z,3.77
2018-04-13T07:26:59.280Z,4.20
2018-04-13T07:29:27.368Z,3.70
2018-04-13T07:31:55.869Z,4.10
2018-04-13T07:34:23.490Z,3.83
2018-04-13T07:36:51.556Z,3.80
2018-04-13T07:39:19.660Z,3.47
2018-04-13T07:41:47.683Z,3.40
2018-04-13T07:44:15.746Z,3.80
2018-04-13T07:46:43.796Z,3.30
2018-04-13T07:49:11.871Z,3.40
2018-04-13T07:51:39.936Z,4.30
2018-04-13T07:54:07.998Z,3.60
2018-04-13T07:56:36.074Z,3.40
2018-04-13T07:59:04.128Z,3.83
2018-04-13T08:01:32.180Z,3.93
2018-04-13T08:04:00.256Z,3.70
2018-04-13T08:06:28.314Z,3.73
2018-04-13T08:08:56.376Z,3.37
2018-04-13T08:11:24.441Z,4.20
2018-04-13T08:13:52.502Z,3.77
2018-04-13T08:16:21.338Z,3.77
2018-04-13T08:18:49.404Z,3.77
2018-04-13T08:21:17.507Z,3.53
2018-04-13T08:23:45.520Z,3.57
2018-04-13T08:26:13.581Z,3.80
2018-04-13T08:28:41.661Z,4.17
2018-04-13T08:31:09.728Z,3.10
2018-04-13T08:33:37.797Z,3.30
2018-04-13T08:36:05.849Z,3.10
2018-04-13T08:38:33.907Z,3.70
2018-04-13T08:41:01.993Z,4.00
2018-04-13T08:43:30.103Z,2.93
2018-04-13T08:45:58.876Z,2.80
2018-04-13T08:48:26.942Z,3.40
2018-04-13T08:50:55.039Z,3.20
2018-04-13T08:53:23.095Z,2.53
2018-04-13T08:55:51.140Z,3.30
2018-04-13T08:58:19.204Z,3.03
2018-04-13T09:00:47.302Z,2.37
2018-04-13T09:03:15.357Z,2.13
2018-04-13T09:05:43.441Z,2.70
2018-04-13T09:08:11.533Z,2.40
2018-04-13T09:10:39.587Z,2.00
2018-04-13T09:13:07.661Z,1.90
2018-04-13T09:15:35.947Z,1.83
2018-04-13T09:18:04.002Z,1.77
2018-04-13T09:20:32.059Z,1.90
2018-04-13T09:23:00.187Z,1.87
2018-04-13T09:25:29.011Z,2.33
2018-04-13T09:27:57.857Z,1.70
2018-04-13T09:30:25.916Z,1.47
2018-04-13T09:32:53.972Z,1.40
2018-04-13T09:35:22.033Z,1.53
2018-04-13T09:37:50.107Z,1.43
2018-04-13T09:40:18.160Z,1.50
2018-04-13T09:42:46.991Z,1.40
2018-04-13T09:45:15.058Z,1.67
2018-04-13T09:47:43.114Z,1.40
2018-04-13T09:50:11.176Z,1.70
2018-04-13T09:52:39.258Z,1.63
2018-04-13T09:55:07.314Z,1.70
2018-04-13T09:57:35.366Z,1.83
2018-04-13T10:00:03.437Z,2.30
2018-04-13T10:02:37.476Z,1.70
2018-04-13T10:05:11.073Z,1.50
2018-04-13T10:07:39.128Z,1.93
2018-04-13T10:10:07.960Z,1.33
2018-04-13T10:12:36.038Z,1.60
2018-04-13T10:15:04.103Z,1.40
2018-04-13T10:17:32.156Z,1.37
2018-04-13T10:20:00.224Z,1.30
2018-04-13T10:22:28.286Z,1.30
2018-04-13T10:24:56.336Z,1.50
2018-04-13T10:27:25.181Z,1.30
2018-04-13T10:29:53.236Z,1.40
2018-04-13T10:32:21.306Z,1.30
2018-04-13T10:34:49.578Z,1.40
2018-04-13T10:37:17.654Z,1.60
2018-04-13T10:39:45.710Z,1.60
2018-04-13T10:42:13.774Z,1.47
2018-04-13T10:44:41.882Z,1.40
2018-04-13T10:47:09.930Z,1.83
2018-04-13T10:49:37.983Z,1.67
2018-04-13T10:52:06.073Z,1.60
2018-04-13T10:54:34.133Z,1.80
2018-04-13T10:57:02.199Z,1.53
2018-04-13T10:59:31.023Z,1.60
2018-04-13T11:01:59.086Z,2.00
2018-04-13T11:04:27.171Z,1.50
2018-04-13T11:06:55.239Z,1.60
2018-04-13T11:09:23.306Z,1.57
2018-04-13T11:11:51.381Z,1.60
2018-04-13T11:14:19.439Z,1.37
2018-04-13T11:16:47.558Z,1.47
2018-04-13T11:19:15.641Z,1.57
2018-04-13T11:21:44.472Z,1.67
2018-04-13T11:24:12.551Z,1.50
2018-04-13T11:26:40.613Z,1.70
2018-04-13T11:29:08.668Z,1.87
2018-04-13T11:31:36.736Z,1.73
2018-04-13T11:34:04.788Z,1.47
2018-04-13T11:36:32.865Z,2.00
2018-04-13T11:39:00.945Z,1.70
2018-04-13T11:41:29.058Z,1.80
2018-04-13T11:43:57.090Z,1.70
2018-04-13T11:46:25.155Z,1.70
2018-04-13T11:48:53.207Z,1.70
2018-04-13T11:51:22.043Z,1.80
2018-04-13T11:53:50.101Z,1.63
2018-04-13T11:56:18.162Z,1.90
2018-04-13T11:58:46.232Z,1.60
2018-04-13T12:01:14.298Z,1.63
2018-04-13T12:03:42.398Z,1.70
2018-04-13T12:06:10.446Z,1.60
2018-04-13T12:08:38.500Z,1.90
2018-04-13T12:11:07.336Z,1.60
2018-04-13T12:13:35.397Z,1.90
2018-04-13T12:16:03.465Z,1.70
2018-04-13T12:18:31.517Z,1.80
2018-04-13T12:20:59.595Z,1.53
2018-04-13T12:23:27.664Z,1.50
2018-04-13T12:25:55.770Z,1.63
2018-04-13T12:28:23.808Z,2.10
2018-04-13T12:30:51.881Z,1.90
2018-04-13T12:33:19.934Z,1.90
2018-04-13T12:35:48.764Z,1.70
2018-04-13T12:38:16.867Z,2.10
2018-04-13T12:40:44.905Z,1.90
2018-04-13T12:43:12.974Z,1.90
2018-04-13T12:45:41.041Z,1.83
2018-04-13T12:48:09.111Z,1.90
2018-04-13T12:50:37.180Z,1.90
2018-04-13T12:53:05.338Z,1.87
2018-04-13T12:55:33.333Z,1.60
2018-04-13T12:58:01.365Z,1.60
2018-04-13T13:00:29.436Z,1.50
2018-04-13T13:02:57.499Z,1.60
2018-04-13T13:05:25.564Z,1.57
2018-04-13T13:07:53.637Z,1.70
2018-04-13T13:10:21.689Z,1.50
2018-04-13T13:12:49.743Z,1.87
2018-04-13T13:15:17.825Z,1.33
2018-04-13T13:17:45.897Z,1.40
2018-04-13T13:20:13.957Z,1.30
2018-04-13T13:22:42.032Z,1.67
2018-04-13T13:25:10.078Z,1.40
2018-04-13T13:27:38.165Z,1.37
2018-04-13T13:30:06.219Z,1.43
2018-04-13T13:32:34.273Z,1.90
2018-04-13T13:35:02.339Z,1.43
2018-04-13T13:37:30.424Z,1.30
2018-04-13T13:39:59.217Z,1.40
2018-04-13T13:42:27.280Z,1.30
2018-04-13T13:44:55.341Z,1.30
2018-04-13T13:47:23.409Z,1.70
2018-04-13T13:49:51.475Z,1.70
2018-04-13T13:52:19.527Z,1.10
2018-04-13T13:54:47.592Z,1.67
2018-04-13T13:57:15.658Z,1.27
2018-04-13T13:59:43.708Z,1.10
2018-04-13T14:02:11.771Z,1.30
2018-04-13T14:04:39.856Z,1.17
2018-04-13T14:07:07.912Z,1.20
2018-04-13T14:09:35.965Z,1.10
2018-04-13T14:12:04.036Z,1.40
2018-04-13T14:14:32.096Z,1.10
2018-04-13T14:17:00.170Z,1.20
2018-04-13T14:19:28.228Z,1.10
2018-04-13T14:21:56.290Z,1.87
2018-04-13T14:24:25.121Z,2.50
2018-04-13T14:26:53.176Z,2.57
2018-04-13T14:29:21.236Z,2.60
2018-04-13T14:31:49.322Z,2.67
2018-04-13T14:34:17.380Z,1.87
2018-04-13T14:36:45.441Z,1.93
2018-04-13T14:39:13.510Z,1.77
2018-04-13T14:41:41.567Z,2.00
2018-04-13T14:44:09.612Z,1.90
2018-04-13T14:46:37.686Z,1.70
2018-04-13T14:49:05.750Z,2.23
2018-04-13T14:51:33.813Z,1.90
2018-04-13T14:54:01.914Z,3.03
2018-04-13T14:56:29.966Z,3.80
2018-04-13T14:58:58.019Z,3.10
2018-04-13T15:01:26.085Z,1.93
2018-04-13T15:03:54.151Z,1.60
2018-04-13T15:06:22.207Z,1.50
2018-04-13T15:08:50.283Z,2.10
2018-04-13T15:11:18.366Z,2.10
2018-04-13T15:13:46.436Z,1.57
2018-04-13T15:16:14.476Z,1.40
2018-04-13T15:18:42.554Z,1.40
2018-04-13T15:21:10.597Z,1.20
2018-04-13T15:23:39.419Z,1.20
2018-04-13T15:26:07.488Z,1.20
2018-04-13T15:28:35.547Z,1.30
2018-04-13T15:31:03.611Z,2.20
2018-04-13T15:33:31.665Z,1.50
2018-04-13T15:35:59.725Z,1.20
2018-04-13T15:38:27.789Z,1.40
2018-04-13T15:40:55.857Z,1.43
2018-04-13T15:43:23.920Z,1.40
2018-04-13T15:45:52.745Z,1.23
2018-04-13T15:48:20.804Z,1.30
2018-04-13T15:50:48.863Z,1.03
2018-04-13T15:53:16.936Z,1.10
2018-04-13T15:55:44.999Z,1.23
2018-04-13T15:58:13.068Z,1.30
2018-04-13T16:00:41.120Z,1.30
2018-04-13T16:03:09.198Z,1.43
2018-04-13T16:05:37.264Z,1.07
2018-04-13T16:08:05.320Z,1.30
2018-04-13T16:10:33.389Z,1.10
2018-04-13T16:13:01.450Z,1.10
2018-04-13T16:15:29.520Z,1.20
2018-04-13T16:17:57.618Z,1.23
2018-04-13T16:20:25.679Z,1.20
2018-04-13T16:22:53.741Z,1.40
2018-04-13T16:25:21.815Z,1.33
2018-04-13T16:27:49.870Z,1.33
2018-04-13T16:30:17.927Z,1.20
2018-04-13T16:32:45.988Z,1.70
2018-04-13T16:35:14.812Z,1.20
2018-04-13T16:37:42.875Z,1.33
2018-04-13T16:40:10.954Z,1.17
2018-04-13T16:42:39.013Z,1.20
2018-04-13T16:45:07.065Z,1.30
2018-04-13T16:47:35.926Z,1.20
2018-04-13T16:50:04.021Z,1.10
2018-04-13T16:52:32.045Z,1.30
2018-04-13T16:55:00.112Z,1.27
2018-04-13T16:57:28.206Z,1.40
2018-04-13T16:59:56.270Z,1.20
2018-04-13T17:02:24.326Z,1.23
2018-04-13T17:04:52.393Z,1.23
2018-04-13T17:07:20.457Z,1.20
2018-04-13T17:09:48.513Z,1.20
2018-04-13T17:12:16.566Z,1.33
2018-04-13T17:14:45.390Z,1.57
2018-04-13T17:17:13.482Z,1.57
2018-04-13T17:19:41.551Z,1.60
2018-04-13T17:22:10.377Z,1.37
2018-04-13T17:24:38.433Z,1.40
2018-04-13T17:27:06.505Z,1.40
2018-04-13T17:29:34.569Z,1.40
2018-04-13T17:32:02.625Z,1.30
2018-04-13T17:34:30.688Z,1.30
2018-04-13T17:36:58.740Z,1.47
2018-04-13T17:39:26.811Z,1.40
2018-04-13T17:41:54.886Z,1.37
2018-04-13T17:44:22.945Z,1.23
2018-04-13T17:46:51.005Z,1.20
2018-04-13T17:49:19.093Z,1.50
2018-04-13T17:51:47.166Z,1.40
2018-04-13T17:54:15.228Z,1.30
2018-04-13T17:56:43.277Z,1.60
2018-04-13T17:59:11.364Z,1.30
2018-04-13T18:01:39.420Z,1.40
2018-04-13T18:04:08.246Z,1.70
2018-04-13T18:06:36.349Z,2.10
2018-04-13T18:09:04.402Z,1.77
2018-04-13T18:11:32.453Z,2.23
2018-04-13T18:14:00.542Z,1.93
2018-04-13T18:16:28.601Z,2.00
2018-04-13T18:18:56.667Z,1.63
2018-04-13T18:21:24.737Z,2.30
2018-04-13T18:23:52.805Z,2.20
2018-04-13T18:26:20.862Z,1.90
2018-04-13T18:28:48.961Z,1.77
2018-04-13T18:31:17.020Z,1.70
2018-04-13T18:33:45.120Z,1.60
2018-04-13T18:36:13.155Z,1.57
2018-04-13T18:38:41.209Z,2.17
2018-04-13T18:41:10.037Z,2.30
2018-04-13T18:43:38.103Z,2.73
2018-04-13T18:46:06.158Z,2.50
2018-04-13T18:48:34.213Z,1.93
2018-04-13T18:51:02.282Z,1.90
2018-04-13T18:53:30.345Z,1.70
2018-04-13T18:55:58.392Z,2.90
2018-04-13T18:58:26.476Z,2.00
2018-04-13T19:00:54.537Z,1.83
2018-04-13T19:03:22.604Z,1.90
2018-04-13T19:05:50.653Z,2.10
2018-04-13T19:08:18.710Z,2.30
2018-04-13T19:10:46.771Z,1.90
2018-04-13T19:13:14.873Z,1.63
2018-04-13T19:15:42.940Z,1.77
2018-04-13T19:18:10.990Z,2.40
2018-04-13T19:20:39.065Z,1.90
2018-04-13T19:23:07.152Z,2.00
2018-04-13T19:25:35.189Z,2.90
2018-04-13T19:28:03.253Z,2.43
2018-04-13T19:30:32.081Z,2.00
2018-04-13T19:33:00.141Z,2.30
2018-04-13T19:35:28.202Z,1.83
2018-04-13T19:37:56.292Z,2.00
2018-04-13T19:40:25.122Z,1.50
2018-04-13T19:42:53.179Z,1.80
2018-04-13T19:45:21.271Z,1.70
2018-04-13T19:47:49.316Z,1.93
2018-04-13T19:50:17.384Z,1.73
2018-04-13T19:52:45.446Z,2.40
2018-04-13T19:55:13.526Z,1.93
2018-04-13T19:57:41.584Z,2.17
2018-04-13T20:00:09.649Z,1.80
2018-04-13T20:02:37.715Z,2.07
2018-04-13T20:05:05.839Z,2.10
2018-04-13T20:07:33.871Z,1.87
2018-04-13T20:10:01.948Z,2.00
2018-04-13T20:12:30.022Z,1.93
2018-04-13T20:14:58.080Z,1.80
2018-04-13T20:17:26.147Z,1.93
2018-04-13T20:19:54.217Z,1.97
2018-04-13T20:22:22.285Z,2.10
2018-04-13T20:24:50.361Z,2.10
2018-04-13T20:27:18.585Z,2.10
2018-04-13T20:29:47.376Z,2.07
2018-04-13T20:32:15.430Z,2.20
2018-04-13T20:34:43.504Z,2.10
2018-04-13T20:37:11.568Z,2.00
2018-04-13T20:39:39.646Z,2.33
2018-04-13T20:42:07.706Z,2.30
2018-04-13T20:44:35.782Z,2.50
2018-04-13T20:47:04.072Z,2.33
2018-04-13T20:49:32.111Z,2.00
2018-04-13T20:52:00.171Z,2.43
2018-04-13T20:54:28.455Z,2.10
2018-04-13T20:56:56.513Z,2.33
2018-04-13T20:59:24.567Z,2.20
2018-04-13T21:01:52.628Z,2.17
2018-04-13T21:04:20.687Z,2.13
2018-04-13T21:06:48.746Z,2.07
2018-04-13T21:09:16.811Z,2.30
2018-04-13T21:11:44.865Z,2.10
2018-04-13T21:14:12.941Z,1.90
2018-04-13T21:16:40.984Z,2.13
2018-04-13T21:19:09.053Z,2.40
2018-04-13T21:21:37.140Z,2.80
2018-04-13T21:24:05.194Z,3.07
2018-04-13T21:26:33.273Z,3.60
2018-04-13T21:29:01.313Z,3.00
2018-04-13T21:31:29.377Z,3.33
2018-04-13T21:33:57.478Z,4.00
2018-04-13T21:36:25.530Z,3.73
2018-04-13T21:38:53.594Z,4.03
2018-04-13T21:41:21.668Z,3.30
2018-04-13T21:43:49.724Z,3.07
2018-04-13T21:46:17.775Z,3.10
2018-04-13T21:48:45.994Z,3.27
2018-04-13T21:51:14.046Z,3.00
2018-04-13T21:53:42.104Z,2.60
2018-04-13T21:56:10.163Z,2.60
2018-04-13T21:58:38.223Z,2.63
2018-04-13T22:01:06.288Z,2.60
2018-04-13T22:03:34.344Z,3.07
2018-04-13T22:06:02.412Z,3.30
2018-04-13T22:08:30.471Z,3.50
2018-04-13T22:10:58.525Z,3.70
2018-04-13T22:13:31.260Z,3.10
2018-04-13T22:15:59.318Z,3.27
2018-04-13T22:18:27.380Z,2.90
2018-04-13T22:20:55.457Z,3.30
2018-04-13T22:23:23.514Z,3.20
2018-04-13T22:25:51.608Z,3.53
2018-04-13T22:28:19.659Z,2.70
2018-04-13T22:30:47.720Z,3.10
2018-04-13T22:33:15.793Z,2.43
2018-04-13T22:35:43.849Z,3.00
2018-04-13T22:38:11.908Z,3.33
2018-04-13T22:40:39.978Z,3.70
2018-04-13T22:43:08.018Z,2.77
2018-04-13T22:45:36.072Z,3.00
2018-04-13T22:48:04.152Z,3.37
2018-04-13T22:50:32.191Z,3.63
2018-04-13T22:53:00.245Z,3.60
2018-04-13T22:55:28.311Z,3.50
2018-04-13T22:57:56.351Z,4.17
2018-04-13T23:00:25.171Z,3.57
2018-04-13T23:02:53.236Z,3.10
2018-04-13T23:05:21.289Z,3.10
2018-04-13T23:07:49.343Z,3.90
2018-04-13T23:10:17.408Z,4.20
2018-04-13T23:12:45.468Z,4.10
2018-04-13T23:15:13.575Z,3.93
2018-04-13T23:17:41.593Z,4.30
2018-04-13T23:20:09.644Z,4.30
2018-04-13T23:22:37.705Z,4.40
2018-04-13T23:25:05.757Z,4.27
2018-04-13T23:27:34.607Z,4.50
2018-04-13T23:30:02.659Z,4.03
2018-04-13T23:32:31.472Z,3.63
2018-04-13T23:34:59.532Z,3.63
2018-04-13T23:37:27.589Z,4.37
2018-04-13T23:39:55.644Z,3.70
2018-04-13T23:42:23.734Z,3.50
2018-04-13T23:44:51.789Z,3.90
2018-04-13T23:47:19.853Z,3.77
2018-04-13T23:49:47.954Z,3.80
2018-04-13T23:52:15.984Z,3.70
2018-04-13T23:54:44.028Z,4.00
2018-04-13T23:57:12.157Z,3.97
2018-04-13T23:59:40.200Z,3.77
